sensor_id;sensor_type;location;lat;lon;timestamp;pressure;altitude;pressure_sealevel;temperature;humidity
46412;BME280;32113;42.012;24.870;2023-05-27T00:00:45;98866.78;;;20.59;62.38
46412;BME280;32113;42.012;24.870;2023-05-27T00:03:11;98863.44;;;20.57;62.55
46412;BME280;32113;42.012;24.870;2023-05-27T00:05:36;98869.66;;;20.54;62.37
46412;BME280;32113;42.012;24.870;2023-05-27T00:08:01;98857.44;;;20.22;60.36
46412;BME280;32113;42.012;24.870;2023-05-27T00:10:27;98861.00;;;20.04;59.76
46412;BME280;32113;42.012;24.870;2023-05-27T00:12:52;98849.78;;;20.03;59.98
46412;BME280;32113;42.012;24.870;2023-05-27T00:15:17;98848.16;;;20.01;59.78
46412;BME280;32113;42.012;24.870;2023-05-27T00:17:43;98849.88;;;19.66;60.26
46412;BME280;32113;42.012;24.870;2023-05-27T00:20:08;98848.91;;;19.51;61.09
46412;BME280;32113;42.012;24.870;2023-05-27T00:22:35;98841.78;;;19.55;61.17
46412;BME280;32113;42.012;24.870;2023-05-27T00:25:01;98844.84;;;19.28;62.21
46412;BME280;32113;42.012;24.870;2023-05-27T00:27:27;98840.44;;;18.93;63.43
46412;BME280;32113;42.012;24.870;2023-05-27T00:29:52;98840.59;;;18.90;63.53
46412;BME280;32113;42.012;24.870;2023-05-27T00:32:17;98845.06;;;19.06;63.81
46412;BME280;32113;42.012;24.870;2023-05-27T00:34:44;98841.88;;;19.18;63.70
46412;BME280;32113;42.012;24.870;2023-05-27T00:37:09;98840.72;;;19.24;63.62
46412;BME280;32113;42.012;24.870;2023-05-27T00:39:34;98846.78;;;19.42;64.11
46412;BME280;32113;42.012;24.870;2023-05-27T00:42:00;98843.84;;;19.48;64.53
46412;BME280;32113;42.012;24.870;2023-05-27T00:44:26;98847.44;;;19.63;64.14
46412;BME280;32113;42.012;24.870;2023-05-27T00:46:52;98844.81;;;19.81;63.78
46412;BME280;32113;42.012;24.870;2023-05-27T00:49:17;98847.84;;;19.89;63.58
46412;BME280;32113;42.012;24.870;2023-05-27T00:51:43;98837.13;;;19.95;61.52
46412;BME280;32113;42.012;24.870;2023-05-27T00:54:08;98836.16;;;19.98;60.28
46412;BME280;32113;42.012;24.870;2023-05-27T00:56:33;98839.63;;;19.81;60.07
46412;BME280;32113;42.012;24.870;2023-05-27T00:58:58;98831.88;;;19.79;59.92
46412;BME280;32113;42.012;24.870;2023-05-27T01:01:24;98826.91;;;19.41;61.42
46412;BME280;32113;42.012;24.870;2023-05-27T01:03:53;98823.38;;;19.24;62.16
46412;BME280;32113;42.012;24.870;2023-05-27T01:11:50;98827.44;;;18.93;63.47
46412;BME280;32113;42.012;24.870;2023-05-27T01:14:13;98814.47;;;18.56;64.70
46412;BME280;32113;42.012;24.870;2023-05-27T01:16:40;98820.78;;;18.50;65.20
46412;BME280;32113;42.012;24.870;2023-05-27T01:19:23;98823.66;;;18.44;65.65
46412;BME280;32113;42.012;24.870;2023-05-27T01:21:52;98822.75;;;18.45;65.39
46412;BME280;32113;42.012;24.870;2023-05-27T01:24:17;98822.25;;;18.37;65.47
46412;BME280;32113;42.012;24.870;2023-05-27T01:26:43;98819.19;;;18.29;66.02
46412;BME280;32113;42.012;24.870;2023-05-27T01:29:08;98813.38;;;18.23;66.12
46412;BME280;32113;42.012;24.870;2023-05-27T01:31:34;98820.09;;;18.28;66.02
46412;BME280;32113;42.012;24.870;2023-05-27T01:34:02;98810.13;;;18.37;66.12
46412;BME280;32113;42.012;24.870;2023-05-27T01:36:31;98803.22;;;18.56;64.91
46412;BME280;32113;42.012;24.870;2023-05-27T01:38:58;98804.63;;;18.63;64.41
46412;BME280;32113;42.012;24.870;2023-05-27T01:41:25;98815.75;;;18.47;65.28
46412;BME280;32113;42.012;24.870;2023-05-27T01:43:51;98810.91;;;18.40;65.05
46412;BME280;32113;42.012;24.870;2023-05-27T01:46:17;98815.53;;;18.33;65.63
46412;BME280;32113;42.012;24.870;2023-05-27T01:48:42;98818.91;;;18.35;65.24
46412;BME280;32113;42.012;24.870;2023-05-27T01:51:08;98819.38;;;18.24;65.62
46412;BME280;32113;42.012;24.870;2023-05-27T01:53:34;98823.25;;;18.34;65.41
46412;BME280;32113;42.012;24.870;2023-05-27T01:55:59;98825.00;;;18.34;65.55
46412;BME280;32113;42.012;24.870;2023-05-27T01:58:25;98828.94;;;18.43;64.90
46412;BME280;32113;42.012;24.870;2023-05-27T02:00:50;98824.44;;;18.46;65.04
46412;BME280;32113;42.012;24.870;2023-05-27T02:03:16;98823.72;;;18.62;64.71
46412;BME280;32113;42.012;24.870;2023-05-27T02:05:41;98824.66;;;18.78;63.71
46412;BME280;32113;42.012;24.870;2023-05-27T02:08:07;98824.16;;;18.89;63.90
46412;BME280;32113;42.012;24.870;2023-05-27T02:10:33;98816.69;;;19.01;64.40
46412;BME280;32113;42.012;24.870;2023-05-27T02:12:58;98816.94;;;19.14;64.42
46412;BME280;32113;42.012;24.870;2023-05-27T02:15:23;98819.38;;;19.17;63.95
46412;BME280;32113;42.012;24.870;2023-05-27T02:17:49;98813.28;;;19.18;63.49
46412;BME280;32113;42.012;24.870;2023-05-27T02:20:20;98811.44;;;19.20;62.36
46412;BME280;32113;42.012;24.870;2023-05-27T02:22:45;98820.44;;;19.30;61.90
46412;BME280;32113;42.012;24.870;2023-05-27T02:25:10;98818.63;;;19.33;61.40
46412;BME280;32113;42.012;24.870;2023-05-27T02:27:36;98814.25;;;19.33;61.24
46412;BME280;32113;42.012;24.870;2023-05-27T02:30:01;98808.97;;;19.17;61.78
46412;BME280;32113;42.012;24.870;2023-05-27T02:32:26;98809.53;;;19.06;62.28
46412;BME280;32113;42.012;24.870;2023-05-27T02:34:52;98807.09;;;18.84;62.73
46412;BME280;32113;42.012;24.870;2023-05-27T02:37:17;98807.84;;;18.68;63.44
46412;BME280;32113;42.012;24.870;2023-05-27T02:39:43;98813.16;;;18.65;63.62
46412;BME280;32113;42.012;24.870;2023-05-27T02:42:08;98811.94;;;18.55;64.23
46412;BME280;32113;42.012;24.870;2023-05-27T02:44:33;98819.78;;;18.72;63.93
46412;BME280;32113;42.012;24.870;2023-05-27T02:46:59;98809.31;;;18.74;63.46
46412;BME280;32113;42.012;24.870;2023-05-27T02:49:24;98814.34;;;18.77;63.60
46412;BME280;32113;42.012;24.870;2023-05-27T02:51:49;98812.44;;;18.81;63.32
46412;BME280;32113;42.012;24.870;2023-05-27T02:54:14;98812.53;;;18.79;63.28
46412;BME280;32113;42.012;24.870;2023-05-27T02:56:40;98816.41;;;18.88;63.26
46412;BME280;32113;42.012;24.870;2023-05-27T02:59:05;98815.56;;;18.70;63.45
46412;BME280;32113;42.012;24.870;2023-05-27T03:01:30;98822.88;;;18.61;64.54
46412;BME280;32113;42.012;24.870;2023-05-27T03:03:56;98820.44;;;18.76;64.11
46412;BME280;32113;42.012;24.870;2023-05-27T03:06:21;98827.00;;;18.65;64.25
46412;BME280;32113;42.012;24.870;2023-05-27T03:08:46;98818.59;;;18.60;64.36
46412;BME280;32113;42.012;24.870;2023-05-27T03:11:12;98827.25;;;18.42;65.45
46412;BME280;32113;42.012;24.870;2023-05-27T03:13:37;98832.88;;;18.32;65.85
46412;BME280;32113;42.012;24.870;2023-05-27T03:16:02;98827.94;;;18.45;65.53
46412;BME280;32113;42.012;24.870;2023-05-27T03:18:28;98823.03;;;18.58;65.10
46412;BME280;32113;42.012;24.870;2023-05-27T03:20:53;98836.78;;;18.60;64.42
46412;BME280;32113;42.012;24.870;2023-05-27T03:23:19;98831.66;;;18.59;64.35
46412;BME280;32113;42.012;24.870;2023-05-27T03:25:44;98834.34;;;18.38;65.17
46412;BME280;32113;42.012;24.870;2023-05-27T03:28:10;98837.91;;;18.55;64.76
46412;BME280;32113;42.012;24.870;2023-05-27T03:30:35;98835.88;;;18.61;64.36
46412;BME280;32113;42.012;24.870;2023-05-27T03:33:01;98835.09;;;18.59;64.97
46412;BME280;32113;42.012;24.870;2023-05-27T03:35:27;98852.72;;;18.52;64.68
46412;BME280;32113;42.012;24.870;2023-05-27T03:37:52;98842.13;;;18.57;64.87
46412;BME280;32113;42.012;24.870;2023-05-27T03:40:18;98845.94;;;18.50;64.69
46412;BME280;32113;42.012;24.870;2023-05-27T03:42:43;98849.72;;;18.43;65.09
46412;BME280;32113;42.012;24.870;2023-05-27T03:45:08;98849.72;;;18.43;65.02
46412;BME280;32113;42.012;24.870;2023-05-27T03:47:34;98841.22;;;18.39;65.57
46412;BME280;32113;42.012;24.870;2023-05-27T03:50:01;98839.19;;;18.46;65.31
46412;BME280;32113;42.012;24.870;2023-05-27T03:52:26;98841.00;;;18.44;65.47
46412;BME280;32113;42.012;24.870;2023-05-27T03:54:51;98840.88;;;18.47;65.66
46412;BME280;32113;42.012;24.870;2023-05-27T03:57:17;98845.94;;;18.50;65.89
46412;BME280;32113;42.012;24.870;2023-05-27T03:59:42;98849.16;;;18.55;65.27
46412;BME280;32113;42.012;24.870;2023-05-27T04:02:07;98839.31;;;18.62;64.86
46412;BME280;32113;42.012;24.870;2023-05-27T04:04:33;98841.91;;;18.62;65.10
46412;BME280;32113;42.012;24.870;2023-05-27T04:06:58;98849.09;;;18.57;65.06
46412;BME280;32113;42.012;24.870;2023-05-27T04:09:23;98854.28;;;18.57;64.52
46412;BME280;32113;42.012;24.870;2023-05-27T04:11:49;98854.63;;;18.30;65.78
46412;BME280;32113;42.012;24.870;2023-05-27T04:14:14;98856.13;;;18.35;66.29
46412;BME280;32113;42.012;24.870;2023-05-27T04:16:39;98857.16;;;18.31;66.22
46412;BME280;32113;42.012;24.870;2023-05-27T04:19:06;98854.28;;;18.37;65.70
46412;BME280;32113;42.012;24.870;2023-05-27T04:21:32;98853.50;;;18.35;65.86
46412;BME280;32113;42.012;24.870;2023-05-27T04:23:57;98854.84;;;18.44;65.64
46412;BME280;32113;42.012;24.870;2023-05-27T04:26:22;98859.97;;;18.46;65.64
46412;BME280;32113;42.012;24.870;2023-05-27T04:28:48;98854.47;;;18.52;64.82
46412;BME280;32113;42.012;24.870;2023-05-27T04:31:13;98866.53;;;18.53;64.97
46412;BME280;32113;42.012;24.870;2023-05-27T04:33:44;98869.38;;;18.48;65.05
46412;BME280;32113;42.012;24.870;2023-05-27T04:36:09;98861.50;;;18.50;65.40
46412;BME280;32113;42.012;24.870;2023-05-27T04:38:34;98870.50;;;18.62;64.94
46412;BME280;32113;42.012;24.870;2023-05-27T04:41:00;98863.72;;;18.77;64.67
46412;BME280;32113;42.012;24.870;2023-05-27T04:43:26;98864.63;;;18.95;63.96
46412;BME280;32113;42.012;24.870;2023-05-27T04:45:52;98873.38;;;19.12;63.22
46412;BME280;32113;42.012;24.870;2023-05-27T04:48:17;98871.28;;;19.01;63.09
46412;BME280;32113;42.012;24.870;2023-05-27T04:50:43;98870.81;;;18.93;63.84
46412;BME280;32113;42.012;24.870;2023-05-27T04:53:08;98879.91;;;19.01;63.46
46412;BME280;32113;42.012;24.870;2023-05-27T04:55:34;98883.09;;;19.08;63.29
46412;BME280;32113;42.012;24.870;2023-05-27T04:57:59;98884.47;;;19.15;63.40
46412;BME280;32113;42.012;24.870;2023-05-27T05:00:28;98887.16;;;19.14;63.47
46412;BME280;32113;42.012;24.870;2023-05-27T05:03:12;98893.03;;;19.17;63.15
46412;BME280;32113;42.012;24.870;2023-05-27T05:05:45;98891.50;;;19.13;63.42
46412;BME280;32113;42.012;24.870;2023-05-27T05:08:10;98893.91;;;19.18;63.46
46412;BME280;32113;42.012;24.870;2023-05-27T05:10:36;98889.25;;;19.25;63.58
46412;BME280;32113;42.012;24.870;2023-05-27T05:13:01;98894.19;;;19.29;63.60
46412;BME280;32113;42.012;24.870;2023-05-27T05:15:26;98893.38;;;19.29;63.18
46412;BME280;32113;42.012;24.870;2023-05-27T05:17:51;98891.44;;;19.33;63.34
46412;BME280;32113;42.012;24.870;2023-05-27T05:20:17;98890.94;;;19.43;63.28
46412;BME280;32113;42.012;24.870;2023-05-27T05:22:42;98900.88;;;19.53;63.00
46412;BME280;32113;42.012;24.870;2023-05-27T05:25:07;98895.44;;;19.58;62.54
46412;BME280;32113;42.012;24.870;2023-05-27T05:27:33;98897.97;;;19.59;62.66
46412;BME280;32113;42.012;24.870;2023-05-27T05:29:59;98899.56;;;19.79;62.43
46412;BME280;32113;42.012;24.870;2023-05-27T05:32:24;98896.41;;;19.90;61.98
46412;BME280;32113;42.012;24.870;2023-05-27T05:34:49;98899.63;;;19.78;61.81
46412;BME280;32113;42.012;24.870;2023-05-27T05:37:14;98891.50;;;19.84;61.88
46412;BME280;32113;42.012;24.870;2023-05-27T05:39:40;98895.09;;;19.99;61.10
46412;BME280;32113;42.012;24.870;2023-05-27T05:42:06;98896.22;;;20.11;60.65
46412;BME280;32113;42.012;24.870;2023-05-27T05:44:31;98904.00;;;20.29;60.28
46412;BME280;32113;42.012;24.870;2023-05-27T05:46:56;98903.00;;;20.31;59.48
46412;BME280;32113;42.012;24.870;2023-05-27T05:49:22;98898.09;;;20.09;60.46
46412;BME280;32113;42.012;24.870;2023-05-27T05:51:47;98899.09;;;20.22;60.36
46412;BME280;32113;42.012;24.870;2023-05-27T05:54:13;98901.63;;;20.24;60.25
46412;BME280;32113;42.012;24.870;2023-05-27T05:56:38;98897.22;;;20.42;59.91
46412;BME280;32113;42.012;24.870;2023-05-27T05:59:03;98900.81;;;20.56;59.49
46412;BME280;32113;42.012;24.870;2023-05-27T06:01:29;98904.63;;;20.66;58.07
46412;BME280;32113;42.012;24.870;2023-05-27T06:03:54;98899.66;;;20.61;58.99
46412;BME280;32113;42.012;24.870;2023-05-27T06:06:20;98900.75;;;20.57;58.89
46412;BME280;32113;42.012;24.870;2023-05-27T06:08:46;98903.13;;;20.62;58.83
46412;BME280;32113;42.012;24.870;2023-05-27T06:11:11;98893.84;;;20.56;58.23
46412;BME280;32113;42.012;24.870;2023-05-27T06:13:36;98900.41;;;20.47;58.86
46412;BME280;32113;42.012;24.870;2023-05-27T06:16:02;98897.19;;;20.58;59.20
46412;BME280;32113;42.012;24.870;2023-05-27T06:18:27;98900.31;;;20.65;58.91
46412;BME280;32113;42.012;24.870;2023-05-27T06:20:52;98903.28;;;20.75;58.34
46412;BME280;32113;42.012;24.870;2023-05-27T06:23:17;98900.09;;;20.70;58.07
46412;BME280;32113;42.012;24.870;2023-05-27T06:25:43;98915.28;;;20.61;58.59
46412;BME280;32113;42.012;24.870;2023-05-27T06:28:08;98919.41;;;20.50;59.22
46412;BME280;32113;42.012;24.870;2023-05-27T06:30:33;98917.44;;;20.37;59.11
46412;BME280;32113;42.012;24.870;2023-05-27T06:32:58;98921.41;;;20.44;59.32
46412;BME280;32113;42.012;24.870;2023-05-27T06:35:24;98923.09;;;20.61;59.29
46412;BME280;32113;42.012;24.870;2023-05-27T06:37:49;98931.19;;;20.57;59.20
46412;BME280;32113;42.012;24.870;2023-05-27T06:40:14;98927.50;;;20.61;59.32
46412;BME280;32113;42.012;24.870;2023-05-27T06:42:40;98935.72;;;20.69;58.98
46412;BME280;32113;42.012;24.870;2023-05-27T06:45:05;98939.53;;;20.80;58.90
46412;BME280;32113;42.012;24.870;2023-05-27T06:47:31;98949.38;;;20.91;59.01
46412;BME280;32113;42.012;24.870;2023-05-27T06:49:56;98950.22;;;20.91;60.29
46412;BME280;32113;42.012;24.870;2023-05-27T06:52:21;98956.38;;;20.90;60.58
46412;BME280;32113;42.012;24.870;2023-05-27T06:54:47;98960.66;;;20.91;62.77
46412;BME280;32113;42.012;24.870;2023-05-27T06:57:12;98968.91;;;20.99;60.86
46412;BME280;32113;42.012;24.870;2023-05-27T06:59:38;98971.91;;;20.76;61.43
46412;BME280;32113;42.012;24.870;2023-05-27T07:02:03;98971.13;;;20.73;64.46
46412;BME280;32113;42.012;24.870;2023-05-27T07:04:28;98962.09;;;20.47;67.44
46412;BME280;32113;42.012;24.870;2023-05-27T07:06:54;98958.22;;;20.38;69.18
46412;BME280;32113;42.012;24.870;2023-05-27T07:09:19;98958.13;;;20.24;70.68
46412;BME280;32113;42.012;24.870;2023-05-27T07:11:44;98962.63;;;20.20;71.30
46412;BME280;32113;42.012;24.870;2023-05-27T07:14:10;98962.69;;;20.18;72.58
46412;BME280;32113;42.012;24.870;2023-05-27T07:16:36;98961.78;;;20.19;72.26
46412;BME280;32113;42.012;24.870;2023-05-27T07:19:01;98963.47;;;20.20;72.30
46412;BME280;32113;42.012;24.870;2023-05-27T07:21:26;98953.81;;;20.22;71.39
46412;BME280;32113;42.012;24.870;2023-05-27T07:23:52;98958.88;;;20.08;73.49
46412;BME280;32113;42.012;24.870;2023-05-27T07:26:17;98960.81;;;20.04;73.83
46412;BME280;32113;42.012;24.870;2023-05-27T07:28:43;98966.38;;;19.96;73.54
46412;BME280;32113;42.012;24.870;2023-05-27T07:31:08;98965.06;;;19.88;74.71
46412;BME280;32113;42.012;24.870;2023-05-27T07:33:33;98968.19;;;19.94;74.94
46412;BME280;32113;42.012;24.870;2023-05-27T07:35:59;98971.44;;;19.82;75.83
46412;BME280;32113;42.012;24.870;2023-05-27T07:38:24;98975.50;;;19.70;76.86
46412;BME280;32113;42.012;24.870;2023-05-27T07:40:49;98961.88;;;19.65;77.92
46412;BME280;32113;42.012;24.870;2023-05-27T07:43:15;98962.16;;;19.76;77.84
46412;BME280;32113;42.012;24.870;2023-05-27T07:45:40;98960.03;;;19.85;76.77
46412;BME280;32113;42.012;24.870;2023-05-27T07:48:05;98951.53;;;19.99;75.66
46412;BME280;32113;42.012;24.870;2023-05-27T07:50:30;98967.59;;;19.89;76.10
46412;BME280;32113;42.012;24.870;2023-05-27T07:52:56;98955.13;;;19.78;76.49
46412;BME280;32113;42.012;24.870;2023-05-27T07:55:21;98955.66;;;19.85;76.49
46412;BME280;32113;42.012;24.870;2023-05-27T07:57:46;98958.50;;;19.80;76.71
46412;BME280;32113;42.012;24.870;2023-05-27T08:00:12;98956.66;;;19.65;78.10
46412;BME280;32113;42.012;24.870;2023-05-27T08:02:37;98958.56;;;19.79;78.29
46412;BME280;32113;42.012;24.870;2023-05-27T08:05:03;98955.59;;;19.69;77.78
46412;BME280;32113;42.012;24.870;2023-05-27T08:07:31;98952.38;;;19.64;78.11
46412;BME280;32113;42.012;24.870;2023-05-27T08:09:56;98956.88;;;19.60;79.39
46412;BME280;32113;42.012;24.870;2023-05-27T08:12:22;98959.56;;;19.59;78.77
46412;BME280;32113;42.012;24.870;2023-05-27T08:14:48;98961.03;;;19.64;79.24
46412;BME280;32113;42.012;24.870;2023-05-27T08:17:13;98955.91;;;19.80;77.21
46412;BME280;32113;42.012;24.870;2023-05-27T08:19:39;98956.50;;;19.86;77.14
46412;BME280;32113;42.012;24.870;2023-05-27T08:22:04;98955.97;;;19.79;76.93
46412;BME280;32113;42.012;24.870;2023-05-27T08:24:33;98967.69;;;19.70;75.62
46412;BME280;32113;42.012;24.870;2023-05-27T08:26:59;98964.00;;;19.56;75.79
46412;BME280;32113;42.012;24.870;2023-05-27T08:29:24;98969.50;;;19.33;77.52
46412;BME280;32113;42.012;24.870;2023-05-27T08:31:52;98969.38;;;19.16;78.69
46412;BME280;32113;42.012;24.870;2023-05-27T08:34:18;98968.16;;;19.24;79.86
46412;BME280;32113;42.012;24.870;2023-05-27T08:36:43;98971.19;;;19.51;79.49
46412;BME280;32113;42.012;24.870;2023-05-27T08:39:08;98974.78;;;19.66;78.59
46412;BME280;32113;42.012;24.870;2023-05-27T08:41:34;98975.56;;;19.68;76.59
46412;BME280;32113;42.012;24.870;2023-05-27T08:44:00;98972.59;;;19.76;76.32
46412;BME280;32113;42.012;24.870;2023-05-27T08:46:26;98978.56;;;19.61;75.91
46412;BME280;32113;42.012;24.870;2023-05-27T08:48:51;98977.47;;;19.47;77.45
46412;BME280;32113;42.012;24.870;2023-05-27T08:51:18;98972.34;;;19.46;76.48
46412;BME280;32113;42.012;24.870;2023-05-27T08:53:43;98971.84;;;19.37;75.74
46412;BME280;32113;42.012;24.870;2023-05-27T08:56:09;98980.88;;;19.30;77.23
46412;BME280;32113;42.012;24.870;2023-05-27T08:58:37;98979.72;;;19.36;77.37
46412;BME280;32113;42.012;24.870;2023-05-27T09:01:04;98973.88;;;19.13;79.39
46412;BME280;32113;42.012;24.870;2023-05-27T09:03:29;98973.00;;;19.32;78.92
46412;BME280;32113;42.012;24.870;2023-05-27T09:05:55;98982.88;;;19.25;77.67
46412;BME280;32113;42.012;24.870;2023-05-27T09:08:20;98975.38;;;19.36;78.96
46412;BME280;32113;42.012;24.870;2023-05-27T09:10:46;98979.56;;;19.58;78.37
46412;BME280;32113;42.012;24.870;2023-05-27T09:13:11;98982.13;;;19.76;77.22
46412;BME280;32113;42.012;24.870;2023-05-27T09:15:37;98984.28;;;19.85;75.00
46412;BME280;32113;42.012;24.870;2023-05-27T09:18:05;98982.13;;;19.76;74.33
46412;BME280;32113;42.012;24.870;2023-05-27T09:20:30;98983.84;;;19.59;75.33
46412;BME280;32113;42.012;24.870;2023-05-27T09:22:59;98979.56;;;19.58;76.16
46412;BME280;32113;42.012;24.870;2023-05-27T09:25:26;98986.47;;;19.40;76.63
46412;BME280;32113;42.012;24.870;2023-05-27T09:27:52;98979.06;;;19.50;77.97
46412;BME280;32113;42.012;24.870;2023-05-27T09:30:21;98976.22;;;19.54;77.74
46412;BME280;32113;42.012;24.870;2023-05-27T09:32:47;98978.28;;;19.48;78.58
46412;BME280;32113;42.012;24.870;2023-05-27T09:35:15;98975.50;;;19.33;79.29
46412;BME280;32113;42.012;24.870;2023-05-27T09:37:40;98969.88;;;19.42;78.78
46412;BME280;32113;42.012;24.870;2023-05-27T09:40:06;98968.94;;;19.26;80.01
46412;BME280;32113;42.012;24.870;2023-05-27T09:42:38;98967.06;;;19.47;78.80
46412;BME280;32113;42.012;24.870;2023-05-27T09:45:04;98969.41;;;19.52;78.27
46412;BME280;32113;42.012;24.870;2023-05-27T09:47:31;98968.91;;;19.63;77.23
46412;BME280;32113;42.012;24.870;2023-05-27T09:49:56;98964.63;;;19.62;77.23
46412;BME280;32113;42.012;24.870;2023-05-27T09:52:22;98962.63;;;19.85;76.54
46412;BME280;32113;42.012;24.870;2023-05-27T09:54:48;98955.50;;;19.88;76.24
46412;BME280;32113;42.012;24.870;2023-05-27T09:57:13;98951.91;;;19.91;76.49
46412;BME280;32113;42.012;24.870;2023-05-27T09:59:39;98965.59;;;19.94;74.92
46412;BME280;32113;42.012;24.870;2023-05-27T10:02:05;98961.94;;;19.99;75.14
46412;BME280;32113;42.012;24.870;2023-05-27T10:04:31;98967.00;;;19.84;75.52
46412;BME280;32113;42.012;24.870;2023-05-27T10:06:58;98963.16;;;19.56;76.33
46412;BME280;32113;42.012;24.870;2023-05-27T10:09:24;98968.53;;;19.70;76.38
46412;BME280;32113;42.012;24.870;2023-05-27T10:11:50;98962.88;;;19.62;77.06
46412;BME280;32113;42.012;24.870;2023-05-27T10:14:16;98945.41;;;19.64;78.94
46412;BME280;32113;42.012;24.870;2023-05-27T10:16:50;98955.97;;;19.61;77.90
46412;BME280;32113;42.012;24.870;2023-05-27T10:19:16;98947.59;;;19.54;78.93
46412;BME280;32113;42.012;24.870;2023-05-27T10:21:42;98944.19;;;19.72;78.55
46412;BME280;32113;42.012;24.870;2023-05-27T10:24:09;98935.09;;;19.98;77.95
46412;BME280;32113;42.012;24.870;2023-05-27T10:29:09;98942.09;;;20.14;76.98
46412;BME280;32113;42.012;24.870;2023-05-27T10:31:35;98938.28;;;20.21;75.44
46412;BME280;32113;42.012;24.870;2023-05-27T10:34:04;98934.00;;;20.36;73.59
46412;BME280;32113;42.012;24.870;2023-05-27T10:36:31;98933.63;;;20.60;72.03
46412;BME280;32113;42.012;24.870;2023-05-27T10:38:57;98929.75;;;20.67;69.41
46412;BME280;32113;42.012;24.870;2023-05-27T10:41:23;98932.97;;;20.72;69.12
46412;BME280;32113;42.012;24.870;2023-05-27T10:43:58;98930.69;;;20.66;69.93
46412;BME280;32113;42.012;24.870;2023-05-27T10:46:23;98928.19;;;20.81;70.89
46412;BME280;32113;42.012;24.870;2023-05-27T10:48:49;98932.47;;;20.82;70.95
46412;BME280;32113;42.012;24.870;2023-05-27T10:51:14;98928.38;;;20.94;71.39
46412;BME280;32113;42.012;24.870;2023-05-27T10:53:39;98922.78;;;21.00;70.35
46412;BME280;32113;42.012;24.870;2023-05-27T10:56:05;98918.28;;;21.04;68.47
46412;BME280;32113;42.012;24.870;2023-05-27T10:58:34;98905.66;;;21.26;68.21
46412;BME280;32113;42.012;24.870;2023-05-27T11:01:01;98910.16;;;21.24;65.22
46412;BME280;32113;42.012;24.870;2023-05-27T11:03:28;98899.75;;;21.39;63.99
46412;BME280;32113;42.012;24.870;2023-05-27T11:05:57;98898.22;;;21.65;63.69
46412;BME280;32113;42.012;24.870;2023-05-27T11:08:23;98896.81;;;21.90;61.59
46412;BME280;32113;42.012;24.870;2023-05-27T11:10:49;98887.66;;;21.98;58.41
46412;BME280;32113;42.012;24.870;2023-05-27T11:13:14;98889.25;;;22.00;58.95
46412;BME280;32113;42.012;24.870;2023-05-27T11:15:39;98875.16;;;22.03;58.25
46412;BME280;32113;42.012;24.870;2023-05-27T11:18:07;98878.16;;;22.26;58.42
46412;BME280;32113;42.012;24.870;2023-05-27T11:20:36;98880.91;;;22.37;58.48
46412;BME280;32113;42.012;24.870;2023-05-27T11:23:01;98870.19;;;22.56;57.82
46412;BME280;32113;42.012;24.870;2023-05-27T11:25:27;98873.31;;;22.76;56.77
46412;BME280;32113;42.012;24.870;2023-05-27T11:27:52;98872.56;;;23.02;55.43
46412;BME280;32113;42.012;24.870;2023-05-27T11:30:18;98871.25;;;23.09;51.29
46412;BME280;32113;42.012;24.870;2023-05-27T11:32:48;98863.06;;;23.14;53.43
46412;BME280;32113;42.012;24.870;2023-05-27T11:35:13;98859.25;;;23.32;54.54
46412;BME280;32113;42.012;24.870;2023-05-27T11:37:39;98857.94;;;23.53;54.57
46412;BME280;32113;42.012;24.870;2023-05-27T11:40:09;98867.47;;;23.80;51.97
46412;BME280;32113;42.012;24.870;2023-05-27T11:42:35;98865.69;;;23.80;48.73
46412;BME280;32113;42.012;24.870;2023-05-27T11:45:00;98866.53;;;23.94;49.66
46412;BME280;32113;42.012;24.870;2023-05-27T11:47:25;98857.91;;;24.05;48.40
46412;BME280;32113;42.012;24.870;2023-05-27T11:49:51;98858.78;;;24.18;48.13
46412;BME280;32113;42.012;24.870;2023-05-27T11:52:17;98856.97;;;24.32;47.07
46412;BME280;32113;42.012;24.870;2023-05-27T11:54:42;98862.88;;;24.47;45.60
46412;BME280;32113;42.012;24.870;2023-05-27T11:57:08;98850.25;;;24.65;44.77
46412;BME280;32113;42.012;24.870;2023-05-27T11:59:36;98853.97;;;24.74;44.28
46412;BME280;32113;42.012;24.870;2023-05-27T12:02:01;98852.59;;;24.81;44.46
46412;BME280;32113;42.012;24.870;2023-05-27T12:04:28;98845.16;;;24.88;43.84
46412;BME280;32113;42.012;24.870;2023-05-27T12:06:54;98843.59;;;24.85;42.38
46412;BME280;32113;42.012;24.870;2023-05-27T12:09:19;98843.44;;;24.87;43.22
46412;BME280;32113;42.012;24.870;2023-05-27T12:11:45;98833.81;;;24.87;43.59
46412;BME280;32113;42.012;24.870;2023-05-27T12:14:10;98833.63;;;25.02;43.86
46412;BME280;32113;42.012;24.870;2023-05-27T12:16:35;98832.81;;;25.13;43.64
46412;BME280;32113;42.012;24.870;2023-05-27T12:19:00;98830.56;;;25.19;43.60
46412;BME280;32113;42.012;24.870;2023-05-27T12:21:26;98830.84;;;25.28;43.23
46412;BME280;32113;42.012;24.870;2023-05-27T12:23:51;98817.84;;;25.38;42.81
46412;BME280;32113;42.012;24.870;2023-05-27T12:26:17;98826.22;;;25.54;43.94
46412;BME280;32113;42.012;24.870;2023-05-27T12:28:43;98812.75;;;25.59;42.61
46412;BME280;32113;42.012;24.870;2023-05-27T12:31:08;98816.81;;;25.63;41.89
46412;BME280;32113;42.012;24.870;2023-05-27T12:33:34;98819.94;;;25.57;42.96
46412;BME280;32113;42.012;24.870;2023-05-27T12:35:59;98809.44;;;25.57;41.71
46412;BME280;32113;42.012;24.870;2023-05-27T12:38:25;98808.66;;;25.43;41.27
46412;BME280;32113;42.012;24.870;2023-05-27T12:40:50;98808.88;;;25.40;41.17
46412;BME280;32113;42.012;24.870;2023-05-27T12:43:17;98798.97;;;25.32;41.91
46412;BME280;32113;42.012;24.870;2023-05-27T12:45:42;98796.78;;;25.15;42.18
46412;BME280;32113;42.012;24.870;2023-05-27T12:48:07;98788.19;;;25.13;41.91
46412;BME280;32113;42.012;24.870;2023-05-27T12:50:32;98794.75;;;25.07;42.92